Time;durP1;ratioP1;P1;durP2;ratioP2;P2;SDS_P1;SDS_P2;PMS_P1;PMS_P2;Temp;Humidity;BMP_temperature;BMP_pressure;BME280_temperature;BME280_humidity;BME280_pressure;Samples;Min_cycle;Max_cycle;Signal;HPM_P1;HPM_P2
2021/05/31 00:00:36;;;;;;;10.10;5.93;;;;;5.10;101340.00;;;;5066367;28;20404;-71
2021/05/31 00:03:03;;;;;;;12.60;6.88;;;;;5.10;101348.00;;;;5068560;28;20028;-72
2021/05/31 00:05:31;;;;;;;21.45;6.78;;;;;5.00;101346.00;;;;5067006;28;20048;-71
2021/05/31 00:07:58;;;;;;;10.57;6.13;;;;;5.00;101350.00;;;;5067450;28;20054;-72
2021/05/31 00:10:28;;;;;;;11.15;5.95;;;;;5.10;101360.00;;;;5067092;28;20503;-73
2021/05/31 00:12:57;;;;;;;12.50;5.32;;;;;5.10;101382.00;;;;5067430;28;20554;-71
2021/05/31 00:15:23;;;;;;;13.93;5.68;;;;;5.20;101356.00;;;;5067767;28;20149;-73
2021/05/31 00:17:50;;;;;;;8.93;5.93;;;;;5.10;101363.00;;;;5067199;28;20024;-72
2021/05/31 00:20:18;;;;;;;10.57;6.50;;;;;5.00;101363.00;;;;5068107;28;20020;-72
2021/05/31 00:22:47;;;;;;;11.10;7.10;;;;;4.90;101386.00;;;;5067901;28;20467;-72
2021/05/31 00:25:14;;;;;;;13.70;6.53;;;;;4.90;101388.00;;;;5067436;28;20025;-72
2021/05/31 00:27:41;;;;;;;15.50;6.43;;;;;4.90;101391.00;;;;5067325;28;20079;-71
2021/05/31 00:30:09;;;;;;;10.02;5.88;;;;;4.90;101387.00;;;;5067697;28;20039;-72
2021/05/31 00:32:36;;;;;;;11.32;6.90;;;;;4.80;101383.00;;;;5067504;28;20035;-72
2021/05/31 00:35:04;;;;;;;10.25;6.70;;;;;4.70;101388.00;;;;5067921;28;20067;-72
2021/05/31 00:37:30;;;;;;;17.95;6.82;;;;;4.70;101383.00;;;;5067531;28;20032;-71
2021/05/31 00:39:57;;;;;;;15.57;6.57;;;;;4.70;101394.00;;;;5066920;28;20032;-72
2021/05/31 00:42:24;;;;;;;8.35;5.30;;;;;4.70;101360.00;;;;5067837;28;20128;-72
2021/05/31 00:44:50;;;;;;;12.63;5.68;;;;;4.70;101387.00;;;;5049023;28;20028;-72
2021/05/31 00:47:17;;;;;;;9.25;5.28;;;;;4.70;101383.00;;;;5067191;28;20471;-72
2021/05/31 00:49:44;;;;;;;9.07;5.03;;;;;4.60;101372.00;;;;5064167;28;20507;-72
2021/05/31 00:52:11;;;;;;;9.43;4.90;;;;;4.70;101386.00;;;;5066834;28;20067;-72
2021/05/31 00:54:37;;;;;;;8.35;5.10;;;;;4.60;101385.00;;;;5067686;28;20078;-72
2021/05/31 00:57:04;;;;;;;7.22;4.45;;;;;4.50;101342.00;;;;5066826;28;20033;-73
2021/05/31 00:59:32;;;;;;;9.15;5.43;;;;;4.60;101373.00;;;;5066904;28;20028;-73
2021/05/31 01:01:59;;;;;;;11.05;4.53;;;;;4.60;101381.00;;;;5067369;28;20104;-72
2021/05/31 01:04:25;;;;;;;14.88;8.63;;;;;4.60;101366.00;;;;5067317;28;20071;-72
2021/05/31 01:07:09;;;;;;;11.50;7.43;;;;;4.60;101373.00;;;;5067149;28;20563;-72
2021/05/31 01:10:01;;;;;;;18.55;9.73;;;;;4.60;101377.00;;;;5066937;28;20430;-72
2021/05/31 01:12:45;;;;;;;24.25;11.50;;;;;4.50;101363.00;;;;5063077;28;20040;-72
2021/05/31 01:15:18;;;;;;;20.63;10.00;;;;;4.40;101376.00;;;;5067042;28;20043;-73
2021/05/31 01:17:54;;;;;;;12.63;8.15;;;;;4.30;101374.00;;;;5066021;28;20072;-73
2021/05/31 01:20:52;;;;;;;7.97;5.07;;;;;4.20;101381.00;;;;5048382;28;20025;-72
2021/05/31 01:23:20;;;;;;;11.00;7.22;;;;;4.20;101373.00;;;;5066961;28;20033;-72
2021/05/31 01:25:55;;;;;;;12.80;6.72;;;;;4.00;101382.00;;;;5066307;28;20094;-71
2021/05/31 01:28:39;;;;;;;7.40;5.20;;;;;4.10;101389.00;;;;5066939;28;20032;-73
2021/05/31 01:31:06;;;;;;;10.02;5.53;;;;;4.00;101392.00;;;;5049294;28;20077;-73
2021/05/31 01:33:35;;;;;;;11.43;5.22;;;;;3.90;101406.00;;;;5066698;28;20547;-72
2021/05/31 01:36:04;;;;;;;10.63;5.03;;;;;3.80;101378.00;;;;5066481;28;20029;-72
2021/05/31 01:38:34;;;;;;;8.18;4.65;;;;;3.80;101410.00;;;;5065759;28;20026;-72
2021/05/31 01:41:01;;;;;;;7.07;4.53;;;;;3.90;101396.00;;;;5065926;28;20025;-72
2021/05/31 01:43:29;;;;;;;8.25;4.70;;;;;3.80;101387.00;;;;5066329;28;20060;-72
2021/05/31 01:45:57;;;;;;;10.55;5.40;;;;;3.70;101409.00;;;;5066412;28;20078;-72
2021/05/31 01:48:24;;;;;;;11.27;6.03;;;;;3.70;101403.00;;;;5066138;28;20029;-72
2021/05/31 01:50:52;;;;;;;8.52;6.47;;;;;3.70;101403.00;;;;5066011;28;20522;-72
2021/05/31 01:53:19;;;;;;;15.45;5.95;;;;;3.70;101388.00;;;;5065653;28;20093;-73
2021/05/31 01:55:48;;;;;;;12.18;5.50;;;;;3.60;101382.00;;;;5065251;28;20395;-72
2021/05/31 01:58:15;;;;;;;8.90;5.80;;;;;3.60;101389.00;;;;5065803;28;20090;-72
2021/05/31 02:00:43;;;;;;;9.88;6.22;;;;;3.60;101401.00;;;;5066252;28;20036;-72
2021/05/31 02:03:10;;;;;;;10.00;6.63;;;;;3.60;101400.00;;;;5065990;28;20147;-72
2021/05/31 02:05:36;;;;;;;9.63;5.97;;;;;3.60;101393.00;;;;5065584;28;20051;-72
2021/05/31 02:08:04;;;;;;;10.00;6.45;;;;;3.70;101388.00;;;;5048137;28;20128;-71
2021/05/31 02:10:30;;;;;;;11.48;6.32;;;;;3.70;101397.00;;;;5065522;28;20064;-72
2021/05/31 02:12:59;;;;;;;10.73;6.28;;;;;3.70;101398.00;;;;5065853;28;20032;-71
2021/05/31 02:15:40;;;;;;;9.05;6.70;;;;;3.70;101413.00;;;;5065636;28;20507;-72
2021/05/31 02:18:19;;;;;;;14.18;7.75;;;;;3.60;101410.00;;;;5065596;28;20028;-72
2021/05/31 02:20:47;;;;;;;8.07;6.32;;;;;3.60;101401.00;;;;5064956;28;20067;-72
2021/05/31 02:23:16;;;;;;;10.32;6.45;;;;;3.70;101402.00;;;;5064944;28;20032;-71
2021/05/31 02:25:43;;;;;;;13.50;8.63;;;;;3.80;101403.00;;;;5064157;28;20036;-72
2021/05/31 02:28:10;;;;;;;12.05;9.13;;;;;3.90;101414.00;;;;5065405;28;20052;-72
2021/05/31 02:30:36;;;;;;;12.60;8.30;;;;;3.80;101400.00;;;;5065318;28;20427;-72
2021/05/31 02:33:05;;;;;;;8.80;6.63;;;;;3.70;101389.00;;;;5047641;28;20048;-72
2021/05/31 02:35:35;;;;;;;12.73;5.75;;;;;3.80;101387.00;;;;5065944;28;20040;-72
2021/05/31 02:38:03;;;;;;;7.43;5.57;;;;;3.80;101382.00;;;;5065061;28;20040;-72
2021/05/31 02:40:31;;;;;;;10.40;6.38;;;;;3.80;101392.00;;;;5047717;28;20029;-72
2021/05/31 02:43:00;;;;;;;10.32;5.82;;;;;3.80;101381.00;;;;5065536;28;20058;-72
2021/05/31 02:45:28;;;;;;;11.38;5.32;;;;;3.90;101379.00;;;;5065492;28;20032;-72
2021/05/31 02:47:56;;;;;;;8.75;5.70;;;;;3.80;101392.00;;;;5065615;28;20111;-72
2021/05/31 02:50:23;;;;;;;13.27;5.43;;;;;3.70;101393.00;;;;5068290;28;20112;-72
2021/05/31 02:52:50;;;;;;;8.93;4.97;;;;;3.60;101368.00;;;;5069741;28;20484;-72
2021/05/31 02:55:20;;;;;;;7.60;5.10;;;;;3.50;101387.00;;;;5069530;28;20029;-72
2021/05/31 02:57:47;;;;;;;13.07;5.55;;;;;3.40;101385.00;;;;5069499;28;20582;-72
2021/05/31 03:00:16;;;;;;;7.75;5.28;;;;;3.30;101379.00;;;;5070301;28;20032;-72
2021/05/31 03:02:43;;;;;;;17.95;5.80;;;;;3.20;101380.00;;;;5069219;28;20036;-72
2021/05/31 03:05:12;;;;;;;6.53;4.78;;;;;3.20;101368.00;;;;5069410;28;20029;-72
2021/05/31 03:07:39;;;;;;;9.75;5.75;;;;;3.10;101351.00;;;;5069531;28;20381;-72
2021/05/31 03:10:06;;;;;;;9.40;5.43;;;;;3.10;101374.00;;;;5069194;28;20039;-72
2021/05/31 03:12:34;;;;;;;11.45;4.63;;;;;3.10;101350.00;;;;5069559;28;20503;-71
2021/05/31 03:15:04;;;;;;;12.50;5.40;;;;;3.10;101339.00;;;;5068496;28;20029;-72
2021/05/31 03:17:30;;;;;;;8.55;5.72;;;;;3.10;101331.00;;;;5068581;28;20135;-71
2021/05/31 03:19:57;;;;;;;8.52;5.45;;;;;3.10;101352.00;;;;5069153;28;20395;-72
2021/05/31 03:22:24;;;;;;;8.43;5.82;;;;;3.00;101358.00;;;;5069095;28;20548;-72
2021/05/31 03:24:50;;;;;;;6.43;5.22;;;;;3.00;101345.00;;;;5069367;28;20079;-72
2021/05/31 03:27:17;;;;;;;10.70;5.80;;;;;3.00;101342.00;;;;5069126;28;20562;-71
2021/05/31 03:29:44;;;;;;;10.90;5.78;;;;;3.00;101339.00;;;;5068873;28;20032;-72
2021/05/31 03:32:10;;;;;;;8.80;5.82;;;;;3.00;101351.00;;;;5069148;28;20058;-72
2021/05/31 03:34:37;;;;;;;14.23;5.80;;;;;3.00;101360.00;;;;5068948;28;20028;-72
2021/05/31 03:37:04;;;;;;;9.57;5.97;;;;;3.00;101352.00;;;;5068856;28;20090;-72
2021/05/31 03:39:31;;;;;;;7.75;5.55;;;;;3.00;101340.00;;;;5068567;28;20039;-72
2021/05/31 03:41:57;;;;;;;8.88;5.57;;;;;3.00;101335.00;;;;5067850;28;20509;-72
2021/05/31 03:44:24;;;;;;;12.13;6.40;;;;;3.00;101338.00;;;;5068755;28;20077;-72
2021/05/31 03:46:51;;;;;;;11.43;6.15;;;;;2.90;101343.00;;;;5069378;28;20535;-71
2021/05/31 03:49:17;;;;;;;10.27;6.32;;;;;2.90;101333.00;;;;5068575;28;20024;-72
2021/05/31 03:51:45;;;;;;;7.88;5.80;;;;;3.00;101346.00;;;;5068833;28;20029;-71
2021/05/31 03:54:13;;;;;;;9.30;6.10;;;;;2.90;101365.00;;;;5068758;28;20464;-72
2021/05/31 03:56:40;;;;;;;9.32;5.63;;;;;2.80;101338.00;;;;5068252;28;20115;-72
2021/05/31 03:59:07;;;;;;;13.73;7.13;;;;;2.80;101357.00;;;;5068376;28;20051;-71
2021/05/31 04:01:34;;;;;;;8.18;5.60;;;;;2.90;101367.00;;;;5067238;28;20075;-72
2021/05/31 04:04:00;;;;;;;10.10;6.40;;;;;2.90;101357.00;;;;5068263;28;20028;-71
2021/05/31 04:11:41;;;;;;;12.38;7.07;;;;;2.90;101357.00;;;;5067760;28;20522;-71
2021/05/31 04:14:18;;;;;;;12.00;7.10;;;;;2.90;101360.00;;;;5068145;28;20033;-71
2021/05/31 04:16:50;;;;;;;10.25;6.25;;;;;2.90;101332.00;;;;5068749;28;20070;-71
2021/05/31 04:19:19;;;;;;;9.63;5.20;;;;;2.90;101337.00;;;;5068049;28;20096;-72
2021/05/31 04:21:49;;;;;;;12.75;7.22;;;;;2.90;101333.00;;;;5067925;28;20486;-72
2021/05/31 04:24:16;;;;;;;10.07;5.82;;;;;3.00;101355.00;;;;5068320;28;20024;-72
2021/05/31 04:26:44;;;;;;;9.77;6.10;;;;;3.00;101324.00;;;;5068209;28;20727;-71
2021/05/31 04:29:13;;;;;;;9.93;6.28;;;;;2.90;101322.00;;;;5067895;28;20029;-72
2021/05/31 04:31:40;;;;;;;13.93;6.28;;;;;2.90;101325.00;;;;5067594;28;20029;-72
2021/05/31 04:34:10;;;;;;;10.00;6.22;;;;;2.80;101330.00;;;;5066999;28;20029;-71
2021/05/31 04:36:37;;;;;;;12.50;7.25;;;;;2.80;101306.00;;;;5067698;28;20030;-71
2021/05/31 04:39:07;;;;;;;10.98;6.47;;;;;2.80;101323.00;;;;5067973;28;20472;-72
2021/05/31 04:41:36;;;;;;;17.65;8.55;;;;;2.80;101317.00;;;;5067597;28;20059;-72
2021/05/31 04:44:03;;;;;;;12.10;7.80;;;;;2.70;101317.00;;;;5068174;28;20041;-72
2021/05/31 04:46:30;;;;;;;16.65;8.45;;;;;2.70;101306.00;;;;5067413;28;20029;-72
2021/05/31 04:49:00;;;;;;;12.15;7.75;;;;;2.70;101304.00;;;;5049527;28;20029;-72
2021/05/31 04:51:27;;;;;;;13.93;7.68;;;;;2.70;101314.00;;;;5067624;28;20107;-72
2021/05/31 04:53:57;;;;;;;11.52;5.95;;;;;2.70;101302.00;;;;5067567;28;20415;-72
2021/05/31 04:56:24;;;;;;;7.53;5.55;;;;;2.60;101317.00;;;;5067608;28;20454;-72
2021/05/31 04:58:51;;;;;;;12.60;6.30;;;;;2.60;101300.00;;;;5067386;28;20039;-72
2021/05/31 05:01:18;;;;;;;9.30;6.28;;;;;2.60;101316.00;;;;5066676;28;20028;-71
2021/05/31 05:03:44;;;;;;;9.88;6.07;;;;;2.60;101293.00;;;;5067028;28;20024;-72
2021/05/31 05:06:11;;;;;;;10.77;6.93;;;;;2.60;101296.00;;;;5067457;28;20040;-72
2021/05/31 05:08:37;;;;;;;9.27;6.03;;;;;2.50;101301.00;;;;5067767;28;20120;-71
2021/05/31 05:11:04;;;;;;;6.50;5.00;;;;;2.60;101286.00;;;;5066857;28;20490;-71
2021/05/31 05:13:31;;;;;;;6.80;5.20;;;;;2.60;101284.00;;;;5066765;28;20535;-71
2021/05/31 05:15:58;;;;;;;7.88;6.07;;;;;2.50;101293.00;;;;5067325;28;20541;-72
2021/05/31 05:18:24;;;;;;;9.07;5.68;;;;;2.50;101306.00;;;;5066808;28;20039;-72
2021/05/31 05:20:51;;;;;;;8.57;5.68;;;;;2.40;101292.00;;;;5066392;28;20025;-71
2021/05/31 05:23:17;;;;;;;9.80;5.60;;;;;2.40;101288.00;;;;5066964;28;20151;-72
2021/05/31 05:25:45;;;;;;;10.30;4.50;;;;;2.50;101284.00;;;;5066838;28;20024;-72
2021/05/31 05:28:12;;;;;;;12.85;5.90;;;;;2.50;101264.00;;;;5065687;28;20032;-72
2021/05/31 05:30:38;;;;;;;10.05;5.00;;;;;2.40;101276.00;;;;5066545;28;20028;-72
2021/05/31 05:33:05;;;;;;;7.18;4.75;;;;;2.40;101271.00;;;;5066813;28;20024;-72
2021/05/31 05:35:37;;;;;;;5.65;4.50;;;;;2.40;101274.00;;;;5067109;28;20411;-72
2021/05/31 05:48:23;;;;;;;8.98;4.38;;;;;2.30;101265.00;;;;5066324;28;20029;-71
2021/05/31 05:51:04;;;;;;;8.50;4.28;;;;;2.20;101259.00;;;;5066561;28;20062;-72
2021/05/31 05:53:31;;;;;;;7.90;3.92;;;;;2.30;101259.00;;;;5066339;28;20124;-72
2021/05/31 05:55:58;;;;;;;5.28;4.18;;;;;2.20;101255.00;;;;5066705;28;20103;-72
2021/05/31 05:58:28;;;;;;;7.25;3.90;;;;;2.20;101263.00;;;;5066194;28;20090;-72
2021/05/31 06:01:00;;;;;;;6.93;4.53;;;;;2.10;101264.00;;;;5066776;28;20028;-72
2021/05/31 06:03:27;;;;;;;6.63;4.10;;;;;2.20;101267.00;;;;5065937;28;20060;-71
2021/05/31 06:05:59;;;;;;;9.80;3.78;;;;;2.20;101260.00;;;;5066227;28;20033;-72
2021/05/31 06:08:26;;;;;;;11.93;4.30;;;;;2.20;101251.00;;;;5065741;28;20029;-72
2021/05/31 06:10:52;;;;;;;8.05;4.72;;;;;2.20;101242.00;;;;5066157;28;20029;-72
2021/05/31 06:13:19;;;;;;;9.30;4.78;;;;;2.20;101274.00;;;;5066308;28;20036;-72
2021/05/31 06:15:46;;;;;;;4.15;3.53;;;;;2.20;101281.00;;;;5065654;28;20107;-72
2021/05/31 06:18:12;;;;;;;6.68;3.92;;;;;2.20;101260.00;;;;5065387;28;20434;-72
2021/05/31 06:20:39;;;;;;;5.88;4.00;;;;;2.20;101269.00;;;;5065814;28;20029;-72
2021/05/31 06:23:11;;;;;;;5.25;3.95;;;;;2.30;101273.00;;;;5066196;28;20039;-72
2021/05/31 06:25:38;;;;;;;4.93;3.22;;;;;2.20;101267.00;;;;5065371;28;20078;-72
2021/05/31 06:28:06;;;;;;;6.65;3.67;;;;;2.30;101282.00;;;;5066288;28;20039;-72
2021/05/31 06:30:34;;;;;;;6.32;3.63;;;;;2.30;101271.00;;;;5065209;28;20810;-72
2021/05/31 06:33:01;;;;;;;5.35;3.78;;;;;2.30;101281.00;;;;5065965;28;20028;-72
2021/05/31 06:35:28;;;;;;;8.80;3.90;;;;;2.30;101289.00;;;;5065826;28;20396;-71
2021/05/31 06:37:55;;;;;;;6.28;3.67;;;;;2.20;101276.00;;;;5065699;28;20407;-72
2021/05/31 06:40:22;;;;;;;7.00;4.18;;;;;2.20;101276.00;;;;5065635;28;20086;-72
2021/05/31 06:42:50;;;;;;;4.15;3.70;;;;;2.20;101261.00;;;;5065229;28;20502;-71
2021/05/31 06:45:23;;;;;;;7.97;3.97;;;;;2.20;101265.00;;;;5064869;28;20029;-72
2021/05/31 06:47:52;;;;;;;5.68;4.65;;;;;2.20;101277.00;;;;5065460;28;20028;-71
2021/05/31 06:50:19;;;;;;;6.28;4.68;;;;;2.10;101272.00;;;;5065586;28;20039;-72
2021/05/31 06:52:46;;;;;;;6.57;4.00;;;;;2.00;101264.00;;;;5066169;28;20024;-72
2021/05/31 06:55:13;;;;;;;7.05;4.38;;;;;2.10;101288.00;;;;5065100;28;20392;-72
2021/05/31 06:57:41;;;;;;;10.05;4.85;;;;;2.00;101264.00;;;;5065287;28;20037;-72
2021/05/31 07:00:10;;;;;;;6.20;4.70;;;;;1.90;101289.00;;;;5065656;28;20029;-72
2021/05/31 07:02:37;;;;;;;8.55;4.97;;;;;1.90;101289.00;;;;5064977;28;20111;-72
2021/05/31 07:05:07;;;;;;;6.40;4.80;;;;;1.90;101282.00;;;;5065081;28;20135;-72
2021/05/31 07:07:33;;;;;;;7.07;4.68;;;;;1.90;101296.00;;;;5065782;28;20041;-72
2021/05/31 07:10:00;;;;;;;8.77;4.80;;;;;1.80;101304.00;;;;5065375;28;20039;-73
2021/05/31 07:12:27;;;;;;;8.63;4.78;;;;;1.90;101286.00;;;;5064890;28;20031;-72
2021/05/31 07:14:55;;;;;;;10.35;5.30;;;;;2.00;101288.00;;;;5065307;28;20028;-72
2021/05/31 07:17:22;;;;;;;10.07;5.78;;;;;2.00;101295.00;;;;5065239;28;20063;-73
2021/05/31 07:19:49;;;;;;;8.25;5.95;;;;;1.90;101292.00;;;;5065445;28;20047;-73
2021/05/31 07:22:19;;;;;;;10.88;4.88;;;;;1.90;101315.00;;;;5065851;28;20025;-72
2021/05/31 07:24:47;;;;;;;11.27;4.95;;;;;1.90;101299.00;;;;5064890;28;20025;-71
2021/05/31 07:27:14;;;;;;;13.27;5.32;;;;;1.90;101291.00;;;;5064670;28;20048;-71
2021/05/31 07:29:40;;;;;;;10.30;4.88;;;;;2.00;101297.00;;;;5065073;28;20028;-71
2021/05/31 07:32:08;;;;;;;9.98;5.30;;;;;2.00;101282.00;;;;5065388;28;20024;-71
2021/05/31 07:34:35;;;;;;;8.63;5.20;;;;;2.00;101291.00;;;;5065493;28;20024;-71
2021/05/31 07:37:02;;;;;;;8.75;5.38;;;;;1.90;101300.00;;;;5066163;28;20111;-71
2021/05/31 07:39:28;;;;;;;6.93;4.88;;;;;1.90;101277.00;;;;5068060;28;20029;-71
2021/05/31 07:41:55;;;;;;;13.63;4.93;;;;;2.00;101290.00;;;;5068123;28;20035;-71
2021/05/31 07:44:22;;;;;;;8.50;5.45;;;;;2.00;101284.00;;;;5068754;28;20097;-71
2021/05/31 07:46:49;;;;;;;6.90;4.47;;;;;2.00;101271.00;;;;5068425;28;20035;-71
2021/05/31 07:49:16;;;;;;;8.98;4.35;;;;;2.10;101275.00;;;;5068636;28;20494;-71
2021/05/31 07:51:45;;;;;;;10.27;4.93;;;;;2.10;101271.00;;;;5068224;28;20499;-71
2021/05/31 07:54:14;;;;;;;10.23;4.68;;;;;2.00;101268.00;;;;5068354;28;20037;-71
2021/05/31 07:56:41;;;;;;;11.70;4.72;;;;;2.00;101275.00;;;;5068771;28;20033;-71
2021/05/31 07:59:08;;;;;;;7.53;4.65;;;;;2.10;101292.00;;;;5067937;28;20046;-71
2021/05/31 08:01:35;;;;;;;8.88;4.82;;;;;2.00;101289.00;;;;5068329;28;20646;-71
2021/05/31 08:04:06;;;;;;;10.88;4.32;;;;;2.00;101266.00;;;;5068213;28;20115;-71
2021/05/31 08:06:37;;;;;;;8.68;5.30;;;;;2.10;101278.00;;;;5068143;28;20081;-70
2021/05/31 08:09:05;;;;;;;7.80;4.50;;;;;2.10;101261.00;;;;5068063;28;20036;-71
2021/05/31 08:11:32;;;;;;;7.15;4.68;;;;;2.20;101261.00;;;;5068637;28;20283;-71
2021/05/31 08:13:59;;;;;;;9.23;5.72;;;;;2.10;101273.00;;;;5069067;28;20398;-72
2021/05/31 08:16:26;;;;;;;10.02;4.90;;;;;2.10;101281.00;;;;5068061;28;20073;-72
2021/05/31 08:18:52;;;;;;;7.43;5.03;;;;;2.10;101272.00;;;;5067597;28;20040;-71
2021/05/31 08:21:19;;;;;;;10.65;5.50;;;;;2.10;101267.00;;;;5067741;28;20047;-70
2021/05/31 08:23:46;;;;;;;7.47;5.13;;;;;2.10;101266.00;;;;5067603;28;20491;-71
2021/05/31 08:26:17;;;;;;;10.63;5.30;;;;;2.00;101255.00;;;;5067988;28;20130;-70
2021/05/31 08:28:44;;;;;;;8.02;5.05;;;;;2.00;101267.00;;;;5067596;28;20037;-70
2021/05/31 08:31:10;;;;;;;7.15;4.95;;;;;2.00;101259.00;;;;5067748;28;20029;-70
2021/05/31 08:33:37;;;;;;;7.07;4.90;;;;;2.20;101256.00;;;;5067637;28;20024;-71
2021/05/31 08:36:03;;;;;;;9.02;5.38;;;;;2.10;101270.00;;;;5068073;28;20441;-70
2021/05/31 08:38:31;;;;;;;7.20;4.78;;;;;2.00;101281.00;;;;5068215;28;20111;-70
2021/05/31 08:40:59;;;;;;;8.50;4.80;;;;;1.90;101253.00;;;;5067395;28;20120;-70
2021/05/31 08:43:26;;;;;;;7.22;5.03;;;;;1.90;101251.00;;;;5067491;28;20035;-71
2021/05/31 08:45:52;;;;;;;8.82;5.50;;;;;2.00;101256.00;;;;5067457;28;20032;-71
2021/05/31 08:48:21;;;;;;;8.07;5.45;;;;;2.00;101254.00;;;;5066678;28;20535;-71
2021/05/31 08:50:48;;;;;;;6.97;4.47;;;;;2.00;101260.00;;;;5067560;28;20399;-70
2021/05/31 08:53:15;;;;;;;8.85;4.97;;;;;1.90;101242.00;;;;5066789;28;20074;-70
2021/05/31 08:55:42;;;;;;;5.72;4.57;;;;;1.90;101248.00;;;;5066379;28;20465;-71
2021/05/31 08:58:09;;;;;;;7.57;4.80;;;;;1.90;101252.00;;;;5067899;28;20032;-70
2021/05/31 09:00:36;;;;;;;6.80;5.45;;;;;1.90;101249.00;;;;5066405;28;20021;-70
2021/05/31 09:03:10;;;;;;;11.15;5.60;;;;;2.00;101255.00;;;;5066957;28;20451;-70
2021/05/31 09:05:40;;;;;;;10.63;5.25;;;;;2.00;101247.00;;;;5067063;28;20030;-70
2021/05/31 09:08:11;;;;;;;9.63;6.07;;;;;1.90;101262.00;;;;5067306;28;20554;-72
2021/05/31 09:10:50;;;;;;;12.63;5.72;;;;;1.80;101247.00;;;;5066910;28;20096;-71
2021/05/31 09:13:30;;;;;;;6.40;5.05;;;;;1.70;101267.00;;;;5064631;28;20546;-72
2021/05/31 09:16:03;;;;;;;14.88;6.00;;;;;1.80;101258.00;;;;5066363;28;20028;-70
2021/05/31 09:18:30;;;;;;;12.43;5.78;;;;;1.80;101257.00;;;;5066481;28;20036;-71
2021/05/31 09:20:57;;;;;;;47.90;6.18;;;;;1.80;101251.00;;;;5067298;28;20395;-71
2021/05/31 09:23:24;;;;;;;18.13;7.47;;;;;1.80;101246.00;;;;5066277;28;20425;-70
2021/05/31 09:25:50;;;;;;;24.40;8.60;;;;;1.70;101251.00;;;;5066053;28;20029;-71
2021/05/31 09:28:17;;;;;;;20.05;10.13;;;;;1.60;101253.00;;;;5066666;28;20526;-71
2021/05/31 09:30:45;;;;;;;25.55;9.45;;;;;1.60;101258.00;;;;5067047;28;20032;-71
2021/05/31 09:33:13;;;;;;;23.73;9.30;;;;;1.60;101263.00;;;;5066505;28;20028;-71
2021/05/31 09:35:44;;;;;;;36.60;12.90;;;;;1.60;101271.00;;;;5065510;28;20038;-71
2021/05/31 09:38:14;;;;;;;142.43;10.05;;;;;1.60;101260.00;;;;5064085;28;20036;-71
2021/05/31 09:40:50;;;;;;;131.48;8.32;;;;;1.50;101278.00;;;;5064554;28;20039;-71
2021/05/31 09:43:17;;;;;;;26.50;7.05;;;;;1.40;101257.00;;;;5066636;28;20032;-72
2021/05/31 09:45:50;;;;;;;44.30;8.23;;;;;1.30;101266.00;;;;5066154;28;20048;-71
2021/05/31 09:48:17;;;;;;;14.23;6.95;;;;;1.20;101283.00;;;;5066178;28;20513;-71
2021/05/31 09:50:54;;;;;;;22.75;9.80;;;;;1.20;101258.00;;;;5065669;28;20111;-71
2021/05/31 09:53:21;;;;;;;25.58;9.40;;;;;1.30;101273.00;;;;5064574;28;20564;-71
2021/05/31 09:55:47;;;;;;;16.35;9.38;;;;;1.20;101259.00;;;;5065407;28;20407;-71
2021/05/31 09:58:18;;;;;;;17.33;8.63;;;;;1.20;101253.00;;;;5065130;28;20635;-71
2021/05/31 10:00:53;;;;;;;26.37;12.30;;;;;1.20;101266.00;;;;5063389;28;20091;-70
2021/05/31 10:05:56;;;;;;;22.83;12.85;;;;;1.20;101249.00;;;;5066186;28;20075;-70
2021/05/31 10:10:57;;;;;;;23.48;12.65;;;;;1.20;101268.00;;;;5065313;28;20078;-70
2021/05/31 10:13:24;;;;;;;14.57;10.32;;;;;1.20;101261.00;;;;5065617;28;20036;-71
2021/05/31 10:15:51;;;;;;;27.30;11.77;;;;;1.30;101250.00;;;;5064684;28;20658;-71
2021/05/31 10:18:19;;;;;;;15.80;9.57;;;;;1.30;101268.00;;;;5046737;28;20032;-71
2021/05/31 10:20:47;;;;;;;19.33;10.40;;;;;1.20;101251.00;;;;5066228;28;20085;-71
2021/05/31 10:23:15;;;;;;;18.15;9.13;;;;;1.30;101250.00;;;;5065324;28;20119;-71
2021/05/31 10:25:51;;;;;;;14.05;9.98;;;;;1.30;101274.00;;;;5065032;28;20450;-72
2021/05/31 10:28:31;;;;;;;22.45;8.77;;;;;1.40;101251.00;;;;5063671;28;20042;-72
2021/05/31 10:31:03;;;;;;;19.20;7.65;;;;;1.60;101252.00;;;;5063978;28;20055;-72
2021/05/31 10:33:31;;;;;;;18.50;7.88;;;;;1.60;101238.00;;;;5065747;28;20074;-71
2021/05/31 10:36:21;;;;;;;20.45;8.15;;;;;1.60;101257.00;;;;5065514;28;20064;-71
2021/05/31 10:38:50;;;;;;;16.33;7.32;;;;;1.60;101245.00;;;;5065841;28;20064;-71
2021/05/31 10:41:25;;;;;;;19.52;6.68;;;;;1.70;101254.00;;;;5065614;28;20052;-71
2021/05/31 10:43:56;;;;;;;16.75;7.30;;;;;1.90;101243.00;;;;5066126;28;20055;-71
2021/05/31 10:46:31;;;;;;;23.08;8.57;;;;;2.40;101153.00;;;;5065722;28;20032;-72
2021/05/31 10:49:00;;;;;;;12.30;7.18;;;;;3.70;101160.00;;;;5065070;28;20064;-71
2021/05/31 10:51:35;;;;;;;11.38;5.70;;;;;4.60;101110.00;;;;5065852;28;20048;-72
2021/05/31 10:54:10;;;;;;;8.70;4.95;;;;;6.00;101117.00;;;;5047744;28;20025;-72
2021/05/31 10:56:36;;;;;;;42.92;20.90;;;;;6.60;101104.00;;;;5065700;28;20029;-71
2021/05/31 10:59:03;;;;;;;17.98;8.48;;;;;6.60;101158.00;;;;5065811;28;20534;-72
2021/05/31 11:01:32;;;;;;;19.58;7.53;;;;;6.60;101146.00;;;;5064773;28;20028;-72
2021/05/31 11:04:03;;;;;;;8.98;4.97;;;;;6.00;101141.00;;;;5065683;28;20356;-72
2021/05/31 11:06:33;;;;;;;9.10;4.10;;;;;6.30;101173.00;;;;5065543;28;20116;-71
2021/05/31 11:09:12;;;;;;;9.15;4.43;;;;;6.20;101158.00;;;;5065654;28;20024;-71
2021/05/31 11:11:49;;;;;;;7.50;3.63;;;;;7.30;101069.00;;;;5068237;28;20036;-72
2021/05/31 11:14:40;;;;;;;6.90;3.70;;;;;9.80;101041.00;;;;5069279;28;20055;-72
2021/05/31 11:17:12;;;;;;;16.95;6.00;;;;;10.00;101069.00;;;;5068571;28;20026;-72
2021/05/31 11:19:49;;;;;;;7.00;3.90;;;;;11.20;100997.00;;;;5068810;28;20047;-71
2021/05/31 11:22:20;;;;;;;10.57;4.30;;;;;12.80;101019.00;;;;5069102;28;20032;-71
2021/05/31 11:25:08;;;;;;;15.70;5.07;;;;;12.40;101038.00;;;;5068967;28;20442;-72
2021/05/31 11:27:37;;;;;;;17.35;4.25;;;;;12.80;101005.00;;;;5068839;28;20051;-71
2021/05/31 11:30:10;;;;;;;12.43;4.50;;;;;14.20;100989.00;;;;5069078;28;20439;-72
2021/05/31 11:32:37;;;;;;;11.75;4.30;;;;;14.30;100993.00;;;;5068521;28;20085;-72
2021/05/31 11:35:07;;;;;;;15.05;5.40;;;;;14.70;101008.00;;;;5068782;28;21119;-72
2021/05/31 11:37:33;;;;;;;16.85;5.05;;;;;15.20;101040.00;;;;5068448;28;20033;-72
2021/05/31 11:40:02;;;;;;;4.45;3.13;;;;;15.40;101055.00;;;;5068453;28;20037;-72
2021/05/31 11:42:28;;;;;;;11.95;4.00;;;;;15.40;101059.00;;;;5066132;28;20788;-73
2021/05/31 11:44:57;;;;;;;7.68;3.65;;;;;16.20;101079.00;;;;5048722;28;20029;-72
2021/05/31 11:47:30;;;;;;;4.40;3.30;;;;;16.30;101069.00;;;;5048280;28;20036;-74
2021/05/31 11:49:59;;;;;;;19.20;8.48;;;;;16.10;101051.00;;;;5049731;28;20563;-74
2021/05/31 11:52:29;;;;;;;23.02;15.50;;;;;16.10;101055.00;;;;5048515;28;20039;-72
2021/05/31 11:54:56;;;;;;;26.08;15.82;;;;;16.00;101067.00;;;;5048034;28;20654;-72
2021/05/31 11:57:25;;;;;;;25.95;13.60;;;;;16.40;101083.00;;;;5048914;28;20499;-73
2021/05/31 11:59:56;;;;;;;14.05;4.40;;;;;16.30;101089.00;;;;5048159;28;20078;-72
2021/05/31 12:02:28;;;;;;;20.65;4.30;;;;;16.80;101081.00;;;;5064157;28;20079;-73
2021/05/31 12:04:55;;;;;;;9.50;3.63;;;;;17.50;101101.00;;;;5068559;28;20068;-74
2021/05/31 12:07:24;;;;;;;9.85;3.47;;;;;18.10;101125.00;;;;5057445;28;20381;-73
2021/05/31 12:09:53;;;;;;;11.02;4.50;;;;;18.10;101139.00;;;;5047955;28;20029;-73
2021/05/31 12:12:21;;;;;;;4.40;3.05;;;;;17.50;101117.00;;;;5047898;28;20495;-74
2021/05/31 12:14:52;;;;;;;7.35;3.38;;;;;17.60;101055.00;;;;5048146;28;20626;-73
2021/05/31 12:17:20;;;;;;;12.02;3.20;;;;;17.80;101083.00;;;;5047207;28;20039;-74
2021/05/31 12:19:51;;;;;;;6.85;3.38;;;;;18.00;101103.00;;;;5048224;28;20025;-73
2021/05/31 12:22:20;;;;;;;10.32;3.80;;;;;18.70;101131.00;;;;5047342;28;20028;-74
2021/05/31 12:24:49;;;;;;;8.80;4.40;;;;;18.90;101168.00;;;;5047400;28;20029;-73
2021/05/31 12:27:23;;;;;;;10.55;3.13;;;;;19.10;101190.00;;;;5047286;28;20060;-73
2021/05/31 12:29:49;;;;;;;12.50;3.65;;;;;18.80;101147.00;;;;5046998;28;20033;-72
2021/05/31 12:32:20;;;;;;;12.27;4.10;;;;;19.10;101160.00;;;;5048256;28;20028;-74
2021/05/31 12:34:48;;;;;;;10.77;3.55;;;;;19.20;101167.00;;;;5047878;28;20025;-74
2021/05/31 12:37:22;;;;;;;19.05;4.40;;;;;19.50;101156.00;;;;5047139;28;20037;-73
2021/05/31 12:39:51;;;;;;;9.63;3.70;;;;;19.40;101158.00;;;;5047665;28;20392;-73